createdAt,value
2019-02-16T00:02:06.665Z,11.65
2019-02-16T00:08:54.880Z,9.43
2019-02-16T00:12:03.543Z,7.80
2019-02-16T00:15:01.185Z,7.12
2019-02-16T00:42:32.728Z,10.43
2019-02-16T00:45:14.465Z,10.90
2019-02-16T00:48:06.950Z,10.20
2019-02-16T00:50:55.557Z,9.35
2019-02-16T00:53:32.176Z,8.85
2019-02-16T00:56:28.239Z,10.35
2019-02-16T00:59:24.997Z,8.95
2019-02-16T01:02:17.587Z,10.05
2019-02-16T01:05:07.833Z,8.68
2019-02-16T01:07:43.731Z,11.93
2019-02-16T01:10:24.808Z,9.20
2019-02-16T01:12:56.672Z,11.30
2019-02-16T01:15:35.057Z,11.43
2019-02-16T01:18:11.890Z,12.82
2019-02-16T01:20:56.265Z,11.63
2019-02-16T01:23:41.653Z,10.95
2019-02-16T01:26:51.936Z,11.20
2019-02-16T01:29:34.071Z,12.37
2019-02-16T01:32:13.527Z,10.13
2019-02-16T01:35:04.195Z,10.32
2019-02-16T01:37:46.996Z,11.20
2019-02-16T01:40:32.282Z,10.23
2019-02-16T01:43:01.358Z,11.05
2019-02-16T01:45:30.126Z,14.00
2019-02-16T01:47:59.166Z,9.93
2019-02-16T01:50:28.520Z,12.55
2019-02-16T01:52:57.305Z,12.82
2019-02-16T01:55:26.051Z,13.43
2019-02-16T01:57:54.830Z,11.50
2019-02-16T02:00:24.003Z,10.40
2019-02-16T02:02:52.805Z,15.20
2019-02-16T02:05:21.645Z,15.65
2019-02-16T02:07:50.664Z,10.98
2019-02-16T02:10:19.590Z,12.20
2019-02-16T02:12:48.344Z,10.72
2019-02-16T02:15:17.335Z,13.35
2019-02-16T02:17:46.156Z,14.78
2019-02-16T02:20:15.223Z,12.35
2019-02-16T02:22:43.996Z,14.38
2019-02-16T02:25:12.864Z,13.50
2019-02-16T02:27:41.653Z,10.58
2019-02-16T02:30:10.686Z,15.15
2019-02-16T02:32:39.476Z,14.35
2019-02-16T02:35:08.369Z,12.63
2019-02-16T02:37:37.406Z,12.95
2019-02-16T02:40:06.531Z,13.85
2019-02-16T02:42:35.368Z,11.65
2019-02-16T02:45:04.640Z,14.13
2019-02-16T02:47:33.673Z,11.48
2019-02-16T02:50:02.486Z,14.23
2019-02-16T02:52:31.568Z,15.08
2019-02-16T02:55:00.513Z,11.73
2019-02-16T02:57:29.308Z,12.15
2019-02-16T02:59:58.129Z,10.30
2019-02-16T03:02:27.380Z,12.00
2019-02-16T03:04:56.217Z,10.40
2019-02-16T03:07:25.299Z,10.13
2019-02-16T03:09:54.067Z,12.30
2019-02-16T03:12:22.824Z,14.10
2019-02-16T03:14:51.626Z,9.68
2019-02-16T03:17:20.626Z,10.50
2019-02-16T03:19:49.387Z,11.38
2019-02-16T03:22:18.152Z,8.90
2019-02-16T03:24:47.214Z,11.97
2019-02-16T03:27:48.246Z,14.28
2019-02-16T03:30:50.804Z,10.68
2019-02-16T03:33:44.581Z,10.55
2019-02-16T03:36:59.229Z,15.48
2019-02-16T03:39:31.036Z,9.40
2019-02-16T03:42:00.018Z,8.88
2019-02-16T03:44:29.023Z,11.00
2019-02-16T03:46:58.086Z,9.88
2019-02-16T03:49:26.940Z,14.68
2019-02-16T03:51:55.805Z,12.23
2019-02-16T03:54:24.711Z,10.50
2019-02-16T03:56:53.496Z,13.83
2019-02-16T03:59:22.260Z,10.85
2019-02-16T04:01:51.037Z,11.75
2019-02-16T04:04:19.785Z,11.78
2019-02-16T04:06:48.636Z,12.03
2019-02-16T04:09:17.385Z,11.88
2019-02-16T04:11:46.160Z,9.38
2019-02-16T04:14:14.964Z,12.47
2019-02-16T04:16:43.964Z,9.95
2019-02-16T04:19:12.813Z,13.32
2019-02-16T04:21:41.619Z,15.80
2019-02-16T04:24:10.409Z,11.63
2019-02-16T04:26:40.653Z,10.72
2019-02-16T04:29:09.505Z,11.88
2019-02-16T04:31:38.352Z,10.15
2019-02-16T04:34:07.188Z,11.40
2019-02-16T04:36:36.196Z,13.85
2019-02-16T04:39:06.030Z,14.05
2019-02-16T04:41:34.815Z,11.55
2019-02-16T04:44:03.572Z,11.33
2019-02-16T04:46:32.379Z,13.10
2019-02-16T04:49:01.485Z,13.48
2019-02-16T04:51:30.480Z,13.35
2019-02-16T04:53:59.252Z,14.25
2019-02-16T04:56:28.308Z,14.25
2019-02-16T04:58:57.334Z,16.25
2019-02-16T05:01:26.171Z,13.98
2019-02-16T05:03:54.987Z,13.55
2019-02-16T05:06:23.856Z,14.95
2019-02-16T05:08:52.700Z,16.00
2019-02-16T05:11:21.934Z,14.80
2019-02-16T05:13:50.719Z,16.50
2019-02-16T05:16:19.590Z,17.77
2019-02-16T05:18:48.606Z,23.20
2019-02-16T05:21:17.491Z,18.52
2019-02-16T05:23:46.524Z,18.82
2019-02-16T05:26:15.308Z,17.82
2019-02-16T05:28:44.152Z,16.85
2019-02-16T05:31:12.909Z,16.25
2019-02-16T05:33:41.675Z,16.50
2019-02-16T05:36:10.455Z,22.07
2019-02-16T05:38:39.478Z,19.15
2019-02-16T05:41:08.482Z,21.93
2019-02-16T05:43:37.249Z,20.25
2019-02-16T05:46:06.007Z,17.80
2019-02-16T05:48:35.283Z,23.52
2019-02-16T05:51:04.067Z,22.75
2019-02-16T05:53:33.155Z,20.92
2019-02-16T05:56:02.023Z,16.65
2019-02-16T05:58:30.811Z,16.55
2019-02-16T06:01:00.119Z,16.40
2019-02-16T06:03:28.968Z,19.48
2019-02-16T06:05:57.966Z,17.27
2019-02-16T06:08:26.728Z,20.72
2019-02-16T06:10:55.482Z,17.40
2019-02-16T06:13:24.259Z,15.80
2019-02-16T06:15:53.565Z,22.37
2019-02-16T06:18:22.872Z,24.45
2019-02-16T06:20:51.673Z,15.13
2019-02-16T06:23:20.749Z,17.20
2019-02-16T06:25:49.503Z,17.80
2019-02-16T06:28:18.887Z,20.70
2019-02-16T06:30:47.918Z,17.25
2019-02-16T06:33:17.315Z,20.08
2019-02-16T06:36:08.202Z,20.77
2019-02-16T06:38:37.388Z,22.80
2019-02-16T06:41:06.178Z,22.22
2019-02-16T06:43:35.569Z,22.50
2019-02-16T06:46:04.431Z,24.82
2019-02-16T06:48:33.332Z,21.35
2019-02-16T06:51:04.417Z,24.47
2019-02-16T06:53:33.521Z,24.02
2019-02-16T06:56:25.297Z,24.30
2019-02-16T06:58:54.394Z,26.30
2019-02-16T07:01:23.503Z,27.60
2019-02-16T07:03:52.315Z,31.73
2019-02-16T07:06:21.166Z,34.92
2019-02-16T07:08:50.425Z,38.78
2019-02-16T07:11:19.506Z,32.42
2019-02-16T07:13:48.516Z,36.03
2019-02-16T07:16:31.849Z,34.05
2019-02-16T07:19:08.313Z,31.07
2019-02-16T07:21:37.435Z,31.25
2019-02-16T07:24:06.304Z,35.13
2019-02-16T07:26:35.146Z,33.50
2019-02-16T07:29:03.976Z,27.98
2019-02-16T07:31:32.840Z,25.52
2019-02-16T07:34:01.893Z,28.00
2019-02-16T07:36:30.637Z,27.48
2019-02-16T07:38:59.949Z,29.32
2019-02-16T07:41:28.733Z,28.07
2019-02-16T07:44:22.589Z,27.75
2019-02-16T07:47:06.914Z,31.27
2019-02-16T07:49:50.976Z,28.55
2019-02-16T07:52:41.672Z,30.25
2019-02-16T07:55:21.763Z,29.63
2019-02-16T07:58:01.294Z,31.52
2019-02-16T08:01:08.402Z,33.15
2019-02-16T08:03:49.015Z,31.55
2019-02-16T08:06:35.833Z,35.52
2019-02-16T08:09:16.696Z,36.15
2019-02-16T08:12:06.131Z,40.55
2019-02-16T08:14:50.140Z,35.10
2019-02-16T08:17:38.150Z,36.95
2019-02-16T08:20:36.967Z,29.65
2019-02-16T08:23:40.196Z,36.03
2019-02-16T08:26:25.142Z,32.08
2019-02-16T08:29:02.261Z,32.03
2019-02-16T08:31:39.300Z,36.70
2019-02-16T08:34:29.279Z,34.40
2019-02-16T08:37:20.430Z,33.13
2019-02-16T08:40:06.907Z,29.50
2019-02-16T08:42:53.547Z,32.70
2019-02-16T08:45:50.738Z,29.05
2019-02-16T08:48:50.853Z,26.90
2019-02-16T08:51:54.280Z,27.62
2019-02-16T08:54:48.579Z,26.85
2019-02-16T08:57:26.203Z,29.32
2019-02-16T09:00:11.859Z,26.82
2019-02-16T09:02:52.434Z,30.70
2019-02-16T09:05:43.647Z,27.53
2019-02-16T09:08:20.722Z,30.67
2019-02-16T09:11:15.318Z,29.23
2019-02-16T09:14:03.308Z,27.57
2019-02-16T09:16:56.950Z,25.83
2019-02-16T09:19:44.992Z,28.60
2019-02-16T09:22:33.223Z,28.80
2019-02-16T09:25:24.224Z,26.70
2019-02-16T09:28:30.118Z,28.13
2019-02-16T09:31:06.499Z,29.90
2019-02-16T09:33:49.457Z,26.47
2019-02-16T09:36:41.302Z,28.03
2019-02-16T09:39:29.900Z,31.23
2019-02-16T09:42:08.902Z,30.10
2019-02-16T09:44:58.507Z,27.77
2019-02-16T09:47:36.198Z,27.87
2019-02-16T09:50:28.169Z,29.70
2019-02-16T09:53:15.508Z,27.60
2019-02-16T09:56:12.453Z,28.03
2019-02-16T09:59:03.482Z,26.50
2019-02-16T10:01:41.218Z,27.50
2019-02-16T10:04:33.104Z,27.37
2019-02-16T10:07:30.320Z,26.33
2019-02-16T10:10:15.927Z,23.00
2019-02-16T10:13:00.659Z,25.37
2019-02-16T10:15:44.221Z,28.40
2019-02-16T10:18:32.722Z,25.03
2019-02-16T10:21:16.281Z,23.80
2019-02-16T10:24:17.164Z,24.80
2019-02-16T10:27:06.486Z,21.97
2019-02-16T10:30:17.904Z,24.47
2019-02-16T10:33:24.963Z,23.20
2019-02-16T10:36:23.454Z,21.00
2019-02-16T10:39:16.222Z,21.63
2019-02-16T10:42:11.490Z,19.93
2019-02-16T10:46:40.964Z,20.70
2019-02-16T10:48:23.403Z,19.63
2019-02-16T10:52:06.765Z,16.50
2019-02-16T10:54:57.548Z,19.10
2019-02-16T10:57:46.430Z,17.97
2019-02-16T11:00:34.267Z,18.10
2019-02-16T11:03:32.982Z,17.27
2019-02-16T11:06:22.995Z,17.20
2019-02-16T11:09:02.304Z,16.70
2019-02-16T11:12:16.913Z,17.90
2019-02-16T11:14:59.342Z,17.07
2019-02-16T11:17:55.893Z,18.03
2019-02-16T11:20:43.365Z,17.53
2019-02-16T11:23:46.805Z,15.80
2019-02-16T11:26:29.722Z,15.97
2019-02-16T11:29:23.812Z,15.77
2019-02-16T11:32:00.093Z,15.20
2019-02-16T11:34:48.104Z,16.53
2019-02-16T11:37:41.968Z,17.00
2019-02-16T11:40:24.931Z,15.20
2019-02-16T11:43:15.084Z,17.13
2019-02-16T11:45:55.953Z,15.73
2019-02-16T11:48:36.813Z,16.17
2019-02-16T11:51:15.819Z,17.87
2019-02-16T11:53:59.055Z,16.00
2019-02-16T11:56:44.350Z,16.47
2019-02-16T11:59:26.934Z,15.37
2019-02-16T12:02:27.153Z,16.93
2019-02-16T12:05:28.887Z,15.43
2019-02-16T12:08:08.293Z,13.70
2019-02-16T12:11:00.852Z,12.63
2019-02-16T12:13:36.049Z,12.50
2019-02-16T12:16:20.349Z,10.83
2019-02-16T12:19:05.740Z,10.20
2019-02-16T12:21:54.526Z,8.67
2019-02-16T12:24:58.683Z,8.47
2019-02-16T12:27:35.174Z,9.67
2019-02-16T12:30:30.230Z,10.20
2019-02-16T12:33:24.761Z,8.70
2019-02-16T12:36:11.004Z,7.10
2019-02-16T12:39:06.468Z,7.10
2019-02-16T12:41:37.473Z,9.93
2019-02-16T12:44:23.258Z,9.47
2019-02-16T12:47:10.076Z,9.27
2019-02-16T12:50:01.466Z,7.90
2019-02-16T12:52:42.668Z,9.83
2019-02-16T12:55:28.358Z,7.47
2019-02-16T12:58:04.910Z,7.80
2019-02-16T13:01:01.123Z,9.20
2019-02-16T13:03:52.488Z,9.07
2019-02-16T13:06:44.889Z,8.47
2019-02-16T13:09:31.678Z,9.27
2019-02-16T13:12:15.089Z,9.33
2019-02-16T13:15:34.899Z,6.20
2019-02-16T13:18:16.476Z,7.53
2019-02-16T13:21:03.235Z,9.20
2019-02-16T13:24:00.490Z,8.13
2019-02-16T13:26:49.516Z,7.13
2019-02-16T13:29:46.653Z,7.53
2019-02-16T13:32:34.082Z,5.93
2019-02-16T13:35:28.373Z,7.33
2019-02-16T13:38:31.747Z,6.90
2019-02-16T13:41:07.752Z,7.17
2019-02-16T13:43:54.566Z,8.20
2019-02-16T13:46:57.448Z,8.37
2019-02-16T13:49:43.910Z,7.83
2019-02-16T13:52:40.551Z,8.27
2019-02-16T13:55:40.370Z,7.80
2019-02-16T13:58:15.588Z,9.10
2019-02-16T14:00:48.371Z,9.67
2019-02-16T14:03:32.739Z,7.90
2019-02-16T14:06:19.120Z,8.53
2019-02-16T14:09:10.115Z,8.33
2019-02-16T14:12:01.169Z,9.60
2019-02-16T14:14:41.699Z,9.47
2019-02-16T14:17:35.691Z,7.00
2019-02-16T14:20:05.167Z,6.53
2019-02-16T14:22:33.999Z,5.73
2019-02-16T14:25:04.991Z,6.47
2019-02-16T14:27:33.824Z,8.03
2019-02-16T14:30:02.623Z,8.50
2019-02-16T14:32:31.920Z,8.00
2019-02-16T14:35:00.723Z,9.90
2019-02-16T14:37:47.579Z,9.70
2019-02-16T14:40:16.399Z,10.87
2019-02-16T14:42:45.160Z,15.27
2019-02-16T14:45:14.531Z,9.00
2019-02-16T14:47:43.371Z,14.17
2019-02-16T14:50:12.538Z,11.90
2019-02-16T14:52:41.345Z,11.93
2019-02-16T14:55:11.856Z,7.77
2019-02-16T14:57:40.699Z,9.77
2019-02-16T15:00:10.362Z,10.10
2019-02-16T15:02:39.261Z,9.50
2019-02-16T15:05:08.533Z,9.57
2019-02-16T15:07:37.856Z,8.83
2019-02-16T15:10:07.711Z,10.80
2019-02-16T15:12:36.476Z,10.30
2019-02-16T15:15:05.715Z,10.63
2019-02-16T15:17:34.973Z,14.70
2019-02-16T15:20:04.207Z,12.00
2019-02-16T15:22:32.988Z,11.47
2019-02-16T15:25:03.716Z,12.60
2019-02-16T15:27:44.122Z,12.50
2019-02-16T15:30:14.730Z,13.45
2019-02-16T15:32:43.685Z,12.70
2019-02-16T15:35:12.700Z,18.85
2019-02-16T15:37:41.890Z,9.60
2019-02-16T15:40:11.144Z,9.15
2019-02-16T15:42:40.558Z,10.20
2019-02-16T15:45:11.649Z,11.95
2019-02-16T15:47:41.001Z,12.13
2019-02-16T15:50:11.539Z,10.40
2019-02-16T15:52:40.440Z,14.83
2019-02-16T15:55:10.119Z,12.07
2019-02-16T15:57:39.056Z,12.13
2019-02-16T16:00:12.748Z,13.55
2019-02-16T16:02:41.694Z,12.45
2019-02-16T16:05:10.582Z,11.00
2019-02-16T16:07:41.071Z,12.98
2019-02-16T16:10:29.142Z,12.33
2019-02-16T16:13:11.645Z,10.65
2019-02-16T16:15:57.795Z,11.50
2019-02-16T16:18:36.442Z,13.70
2019-02-16T16:21:20.855Z,14.78
2019-02-16T16:24:00.835Z,16.07
2019-02-16T16:26:58.367Z,13.20
2019-02-16T16:29:41.166Z,15.53
2019-02-16T16:32:27.879Z,13.78
2019-02-16T16:35:04.901Z,16.52
2019-02-16T16:37:52.004Z,16.62
2019-02-16T16:40:40.055Z,17.12
2019-02-16T16:43:24.607Z,16.73
2019-02-16T16:46:21.917Z,14.00
2019-02-16T16:49:08.606Z,14.50
2019-02-16T16:51:49.341Z,15.32
2019-02-16T16:54:28.378Z,16.65
2019-02-16T16:57:07.415Z,17.50
2019-02-16T16:59:58.447Z,17.45
2019-02-16T17:02:43.795Z,18.98
2019-02-16T17:05:24.668Z,17.27
2019-02-16T17:08:03.735Z,20.48
2019-02-16T17:10:50.080Z,18.73
2019-02-16T17:13:28.115Z,18.90
2019-02-16T17:16:17.250Z,19.85
2019-02-16T17:19:09.139Z,17.40
2019-02-16T17:21:50.436Z,17.62
2019-02-16T17:24:25.339Z,17.23
2019-02-16T17:27:04.317Z,16.82
2019-02-16T17:29:42.315Z,18.85
2019-02-16T17:32:36.634Z,22.62
2019-02-16T17:35:27.910Z,27.82
2019-02-16T17:38:04.153Z,40.92
2019-02-16T17:40:45.905Z,30.40
2019-02-16T17:43:27.037Z,30.48
2019-02-16T17:46:17.718Z,30.72
2019-02-16T17:49:06.088Z,36.50
2019-02-16T17:51:44.548Z,31.30
2019-02-16T17:54:24.662Z,30.43
2019-02-16T17:57:11.927Z,26.85
2019-02-16T17:59:59.818Z,26.55
2019-02-16T18:02:45.588Z,26.00
2019-02-16T18:05:23.052Z,24.18
2019-02-16T18:08:09.508Z,22.80
2019-02-16T18:11:04.637Z,23.73
2019-02-16T18:13:39.803Z,28.38
2019-02-16T18:16:21.376Z,26.02
2019-02-16T18:19:12.127Z,25.05
2019-02-16T18:21:46.501Z,23.15
2019-02-16T18:24:22.395Z,26.60
2019-02-16T18:27:10.358Z,24.95
2019-02-16T18:29:56.976Z,27.95
2019-02-16T18:32:43.508Z,28.12
2019-02-16T18:35:40.506Z,29.92
2019-02-16T18:38:26.983Z,26.50
2019-02-16T18:41:22.778Z,36.40
2019-02-16T18:44:05.994Z,31.73
2019-02-16T18:46:59.752Z,35.83
2019-02-16T18:49:51.059Z,37.98
2019-02-16T18:52:38.805Z,34.35
2019-02-16T18:55:25.249Z,38.28
2019-02-16T18:58:11.693Z,36.20
2019-02-16T19:00:54.799Z,27.70
2019-02-16T19:03:37.655Z,30.80
2019-02-16T19:06:17.846Z,28.42
2019-02-16T19:09:21.058Z,30.48
2019-02-16T19:12:02.637Z,24.27
2019-02-16T19:14:53.548Z,25.00
2019-02-16T19:17:40.249Z,30.25
2019-02-16T19:20:26.719Z,28.40
2019-02-16T19:23:14.494Z,25.68
2019-02-16T19:25:50.472Z,26.52
2019-02-16T19:28:29.029Z,26.20
2019-02-16T19:31:29.423Z,34.63
2019-02-16T19:34:26.451Z,27.37
2019-02-16T19:37:03.340Z,26.02
2019-02-16T19:39:50.363Z,30.32
2019-02-16T19:42:47.358Z,27.60
2019-02-16T19:45:50.412Z,27.02
2019-02-16T19:48:41.552Z,28.30
2019-02-16T19:51:29.591Z,25.05
2019-02-16T19:54:10.363Z,26.25
2019-02-16T19:57:01.185Z,30.50
2019-02-16T19:59:41.207Z,32.75
2019-02-16T20:02:32.201Z,28.47
2019-02-16T20:05:19.044Z,27.00
2019-02-16T20:08:05.642Z,29.02
2019-02-16T20:10:46.876Z,29.60
2019-02-16T20:13:33.159Z,31.48
2019-02-16T20:16:24.083Z,28.70
2019-02-16T20:19:12.193Z,27.62
2019-02-16T20:22:00.152Z,31.25
2019-02-16T20:24:47.629Z,33.75
2019-02-16T20:27:22.574Z,31.35
2019-02-16T20:29:56.413Z,33.33
2019-02-16T20:32:48.269Z,33.13
2019-02-16T20:35:42.323Z,28.12
2019-02-16T20:38:20.397Z,30.75
2019-02-16T20:41:09.364Z,34.48
2019-02-16T20:44:12.789Z,33.00
2019-02-16T20:46:56.197Z,42.98
2019-02-16T20:49:50.257Z,32.75
2019-02-16T20:52:47.174Z,32.13
2019-02-16T20:55:27.907Z,38.28
2019-02-16T20:58:32.425Z,32.00
2019-02-16T21:01:55.486Z,33.60
2019-02-16T21:05:13.968Z,37.70
2019-02-16T21:08:20.502Z,33.23
2019-02-16T21:11:37.163Z,30.50
2019-02-16T21:14:33.767Z,24.47
2019-02-16T21:17:41.908Z,30.15
2019-02-16T21:20:25.837Z,37.13
2019-02-16T21:23:33.596Z,31.95
2019-02-16T21:26:47.276Z,26.15
2019-02-16T22:25:21.274Z,35.17
2019-02-16T22:36:29.679Z,35.73
2019-02-16T22:54:28.412Z,46.60
2019-02-16T23:02:08.560Z,38.98
2019-02-16T23:09:28.744Z,38.90
2019-02-16T23:13:25.461Z,37.98
2019-02-16T23:17:39.512Z,39.00
2019-02-16T23:40:02.636Z,35.60
2019-02-16T23:45:28.959Z,35.70
2019-02-16T23:56:05.280Z,40.58
